Time;durP1;ratioP1;P1;durP2;ratioP2;P2;SDS_P1;SDS_P2;PMS_P1;PMS_P2;Temp;Humidity;BMP_temperature;BMP_pressure;BME280_temperature;BME280_humidity;BME280_pressure;Samples;Min_cycle;Max_cycle;Signal;HPM_P1;HPM_P2
2021/06/02 00:00:17;;;;;;;9.85;3.65;;;25.30;65.00;;;;;;11925463;28;20056;-73
2021/06/02 00:06:04;;;;;;;11.27;3.85;;;25.30;65.60;;;;;;11897956;28;20057;-73
2021/06/02 00:11:51;;;;;;;8.82;3.78;;;25.20;66.70;;;;;;11896813;28;20097;-73
2021/06/02 00:17:39;;;;;;;5.28;3.10;;;25.10;66.50;;;;;;11899402;28;20049;-73
2021/06/02 00:23:26;;;;;;;8.90;3.63;;;24.90;66.40;;;;;;11895693;28;20049;-73
2021/06/02 00:29:14;;;;;;;8.70;3.38;;;24.80;66.10;;;;;;11897416;28;20062;-73
2021/06/02 00:35:04;;;;;;;4.35;3.08;;;24.60;66.30;;;;;;11896983;28;20464;-72
2021/06/02 09:19:38;;;;;;;9.32;5.55;;;24.30;95.90;;;;;;12124902;27;20133;-82
2021/06/02 09:25:24;;;;;;;11.25;5.00;;;24.70;95.60;;;;;;12075703;27;20048;-82
2021/06/02 09:31:33;;;;;;;9.20;5.20;;;25.40;93.80;;;;;;12073337;27;20045;-81
2021/06/02 09:37:20;;;;;;;10.57;5.18;;;25.90;93.00;;;;;;12065993;28;20049;-82
2021/06/02 09:43:07;;;;;;;9.23;5.35;;;26.30;91.80;;;;;;12060152;28;20052;-81
2021/06/02 09:49:02;;;;;;;13.07;6.00;;;26.30;92.30;;;;;;12071159;28;20049;-82
2021/06/02 09:54:51;;;;;;;8.45;5.35;;;26.30;92.40;;;;;;12043375;28;20066;-83
2021/06/02 10:00:39;;;;;;;10.38;5.72;;;26.60;91.70;;;;;;12080646;28;20064;-82
2021/06/02 10:06:35;;;;;;;10.93;5.70;;;26.70;91.40;;;;;;12068923;28;20044;-82
2021/06/02 10:12:23;;;;;;;12.13;6.13;;;26.60;91.20;;;;;;12069170;27;20060;-80
2021/06/02 10:18:24;;;;;;;6.55;5.28;;;26.60;91.60;;;;;;12070407;27;20056;-82
2021/06/02 10:24:11;;;;;;;7.40;4.30;;;26.50;91.30;;;;;;12067849;28;20780;-82
2021/06/02 10:29:59;;;;;;;8.77;5.00;;;26.40;90.30;;;;;;12039728;28;20056;-83
2021/06/02 10:35:48;;;;;;;6.60;4.80;;;26.50;90.70;;;;;;12041592;28;20156;-80
2021/06/02 10:41:41;;;;;;;7.32;5.30;;;26.90;90.20;;;;;;12037382;28;20060;-81
2021/06/02 10:47:28;;;;;;;;;;;27.00;89.40;;;;;;12037818;28;20055;-80
2021/06/02 10:53:24;;;;;;;9.15;5.00;;;27.30;89.70;;;;;;12036957;28;20437;-80
2021/06/02 10:59:27;;;;;;;5.45;4.30;;;27.40;87.10;;;;;;12037329;28;20060;-80
2021/06/02 11:05:16;;;;;;;7.43;4.80;;;27.70;86.70;;;;;;12040933;28;20076;-80
2021/06/02 11:11:18;;;;;;;8.95;4.85;;;27.60;86.40;;;;;;12035985;28;20048;-79
2021/06/02 11:17:18;;;;;;;8.30;4.70;;;27.10;85.70;;;;;;12039608;28;20048;-79
2021/06/02 11:23:08;;;;;;;12.00;5.20;;;27.20;86.00;;;;;;12036787;28;20430;-80
2021/06/02 11:28:55;;;;;;;7.57;4.72;;;27.30;85.00;;;;;;12034626;28;20088;-80
2021/06/02 11:34:43;;;;;;;8.85;4.80;;;27.70;84.20;;;;;;12034276;28;20075;-79
2021/06/02 11:40:30;;;;;;;8.43;4.80;;;28.20;83.90;;;;;;12037872;28;20056;-81
2021/06/02 11:46:19;;;;;;;7.45;4.75;;;28.10;83.00;;;;;;12037535;28;20052;-83
2021/06/02 11:52:07;;;;;;;9.52;4.93;;;27.90;82.80;;;;;;12035878;28;20790;-80
2021/06/02 11:57:56;;;;;;;11.85;5.32;;;28.00;83.00;;;;;;12035834;28;20530;-81
2021/06/02 12:03:42;;;;;;;7.45;4.60;;;27.90;84.80;;;;;;12041246;28;20121;-80
2021/06/02 12:09:28;;;;;;;7.30;4.35;;;28.00;84.90;;;;;;12040335;28;20084;-78
2021/06/02 12:15:18;;;;;;;6.78;3.92;;;28.70;81.80;;;;;;12036885;28;20400;-80
2021/06/02 12:21:10;;;;;;;8.55;4.32;;;29.00;78.00;;;;;;12028569;28;20060;-79
2021/06/02 12:26:57;;;;;;;8.23;4.38;;;29.10;79.80;;;;;;12013046;28;20061;-82
2021/06/02 12:32:51;;;;;;;8.15;4.20;;;29.00;75.60;;;;;;12014723;28;20059;-78
2021/06/02 12:38:39;;;;;;;9.40;3.88;;;28.90;77.60;;;;;;12061634;28;20040;-79
2021/06/02 12:44:27;;;;;;;6.85;4.00;;;29.10;78.30;;;;;;12057195;28;20048;-79
2021/06/02 12:50:33;;;;;;;6.85;4.63;;;29.00;76.30;;;;;;12054854;28;20049;-80
2021/06/02 12:56:21;;;;;;;8.48;4.25;;;28.70;77.80;;;;;;12026114;28;20060;-78
2021/06/02 13:02:09;;;;;;;7.68;3.97;;;28.50;76.90;;;;;;12029562;28;20062;-78
2021/06/02 13:08:18;;;;;;;7.78;4.10;;;28.80;73.90;;;;;;12025649;28;20071;-79
2021/06/02 13:14:05;;;;;;;8.73;4.25;;;29.10;74.60;;;;;;12015277;28;20056;-79
2021/06/02 13:19:52;;;;;;;7.82;4.05;;;29.60;73.80;;;;;;12016592;28;20052;-79
2021/06/02 13:25:40;;;;;;;6.05;3.95;;;29.50;73.40;;;;;;12028617;28;20056;-80
2021/06/02 13:31:36;;;;;;;6.38;4.03;;;28.70;75.40;;;;;;12027798;28;20052;-78
2021/06/02 13:37:25;;;;;;;8.48;4.10;;;28.20;75.90;;;;;;12029774;28;20064;-79
2021/06/02 13:43:15;;;;;;;11.70;4.68;;;28.20;78.10;;;;;;12027074;28;20060;-81
2021/06/02 13:49:02;;;;;;;7.10;3.45;;;28.30;77.50;;;;;;12025106;28;20116;-79
2021/06/02 13:54:56;;;;;;;6.22;3.42;;;29.00;74.10;;;;;;12028448;28;20190;-79
2021/06/02 14:00:43;;;;;;;15.07;3.45;;;29.60;71.90;;;;;;12022673;28;20052;-78
2021/06/02 14:06:30;;;;;;;8.77;3.58;;;29.50;69.80;;;;;;12033672;28;20040;-78
2021/06/02 14:12:17;;;;;;;5.43;3.30;;;29.60;71.00;;;;;;12033310;28;20059;-80
2021/06/02 14:18:08;;;;;;;9.55;3.55;;;29.60;71.00;;;;;;12039575;28;20056;-80
2021/06/02 14:23:56;;;;;;;8.43;3.97;;;29.50;72.00;;;;;;12028394;28;20048;-80
2021/06/02 14:29:43;;;;;;;8.05;4.10;;;29.00;72.00;;;;;;12038357;28;20059;-79
2021/06/02 14:35:31;;;;;;;7.72;3.60;;;28.80;73.70;;;;;;12028066;28;20812;-79
2021/06/02 14:41:17;;;;;;;6.90;3.20;;;29.10;74.00;;;;;;12031767;28;20056;-79
2021/06/02 14:47:04;;;;;;;5.88;3.33;;;29.20;72.60;;;;;;12036431;28;20078;-80
2021/06/02 14:52:55;;;;;;;6.03;3.50;;;29.50;72.60;;;;;;12039224;28;20044;-79
2021/06/02 14:58:42;;;;;;;5.47;2.97;;;29.30;72.80;;;;;;12034293;28;20193;-78
2021/06/02 15:04:28;;;;;;;6.75;2.92;;;29.70;71.90;;;;;;12032715;28;20068;-78
2021/06/02 15:10:16;;;;;;;5.90;2.53;;;30.20;70.20;;;;;;12031129;28;20045;-82
2021/06/02 15:16:03;;;;;;;5.38;2.90;;;30.00;70.20;;;;;;12038414;28;20048;-78
2021/06/02 15:21:50;;;;;;;4.53;3.03;;;30.10;69.90;;;;;;12031936;28;20419;-77
2021/06/02 15:27:38;;;;;;;9.35;3.65;;;29.70;71.20;;;;;;12033071;28;20057;-78
2021/06/02 15:33:25;;;;;;;7.88;2.97;;;29.30;73.20;;;;;;12031175;28;20052;-80
2021/06/02 15:39:12;;;;;;;6.57;2.85;;;29.00;73.90;;;;;;12031799;28;20083;-78
2021/06/02 15:45:00;;;;;;;6.32;3.03;;;28.60;73.60;;;;;;12036288;28;20601;-80
2021/06/02 15:50:46;;;;;;;5.75;3.45;;;28.20;75.00;;;;;;12035948;28;20309;-79
2021/06/02 15:56:38;;;;;;;5.75;3.80;;;27.50;77.70;;;;;;12035027;28;20060;-80
2021/06/02 16:02:26;;;;;;;7.68;4.30;;;27.50;78.80;;;;;;12032206;28;20059;-80
2021/06/02 16:08:13;;;;;;;11.82;4.22;;;27.00;80.40;;;;;;12030482;28;20063;-80
2021/06/02 16:14:00;;;;;;;5.63;3.65;;;26.80;82.20;;;;;;12029771;28;20056;-80
2021/06/02 16:19:48;;;;;;;5.82;3.95;;;26.70;83.10;;;;;;12035237;28;20059;-80
2021/06/02 16:25:34;;;;;;;13.35;4.25;;;26.80;83.30;;;;;;12032607;28;22036;-79
2021/06/02 16:31:25;;;;;;;10.95;3.75;;;26.90;83.60;;;;;;12032861;28;20052;-80
2021/06/02 16:37:14;;;;;;;10.18;4.07;;;26.90;83.90;;;;;;12028457;28;20048;-78
2021/06/02 16:43:01;;;;;;;3.97;3.10;;;27.20;83.30;;;;;;12032310;28;20053;-78
2021/06/02 16:48:47;;;;;;;6.63;3.17;;;27.50;82.30;;;;;;12035720;28;20077;-79
2021/06/02 16:54:37;;;;;;;4.47;2.95;;;27.90;81.70;;;;;;12034282;28;20495;-78
2021/06/02 17:00:24;;;;;;;4.57;2.78;;;28.70;78.90;;;;;;12030580;28;20044;-77
2021/06/02 17:06:11;;;;;;;5.53;2.60;;;28.70;76.60;;;;;;12001620;28;20064;-77
2021/06/02 17:11:59;;;;;;;5.47;2.50;;;28.30;78.20;;;;;;12014776;28;20060;-81
2021/06/02 17:17:49;;;;;;;6.07;2.42;;;28.10;77.30;;;;;;12024211;28;20079;-80
2021/06/02 17:23:37;;;;;;;6.28;2.72;;;28.40;76.80;;;;;;12030004;28;20071;-78
2021/06/02 17:29:28;;;;;;;3.92;2.40;;;29.20;74.40;;;;;;12023544;28;20083;-79
2021/06/02 17:35:16;;;;;;;4.72;2.17;;;31.60;69.50;;;;;;12021904;28;21338;-79
2021/06/02 17:41:02;;;;;;;3.65;2.13;;;36.00;56.60;;;;;;12032250;28;20353;-79
2021/06/02 17:46:54;;;;;;;2.88;2.50;;;38.00;52.20;;;;;;12028473;28;20048;-78
2021/06/02 17:52:45;;;;;;;4.93;2.70;;;39.20;48.50;;;;;;12029862;28;20063;-78
2021/06/02 17:58:33;;;;;;;5.13;2.67;;;39.20;47.40;;;;;;12030815;28;20057;-78
2021/06/02 18:04:21;;;;;;;5.00;2.70;;;39.00;47.70;;;;;;12031642;28;20846;-78
2021/06/02 18:10:12;;;;;;;5.97;2.83;;;38.50;47.90;;;;;;12031663;28;20048;-79
2021/06/02 18:16:03;;;;;;;5.00;2.70;;;37.80;49.10;;;;;;12032571;28;20053;-78
2021/06/02 18:21:52;;;;;;;5.38;3.22;;;37.90;48.90;;;;;;12033252;28;20076;-79
2021/06/02 18:27:43;;;;;;;3.35;2.88;;;37.80;49.40;;;;;;12031577;28;20048;-78
2021/06/02 18:33:30;;;;;;;4.60;3.75;;;36.60;51.00;;;;;;12033459;28;20057;-78
2021/06/02 18:39:18;;;;;;;4.88;4.28;;;34.40;55.90;;;;;;12033276;28;20554;-78
2021/06/02 18:45:06;;;;;;;10.10;4.90;;;32.00;60.40;;;;;;12027888;28;20048;-78
2021/06/02 18:56:49;;;;;;;8.30;4.85;;;31.80;62.40;;;;;;11664937;22;20042;-73
2021/06/02 19:02:36;;;;;;;6.70;4.70;;;32.50;60.90;;;;;;11888310;28;20046;-73
2021/06/02 19:08:22;;;;;;;7.78;4.85;;;32.50;60.50;;;;;;11875770;28;20055;-73
2021/06/02 19:14:12;;;;;;;7.68;5.22;;;31.70;62.20;;;;;;11889040;28;20167;-73
2021/06/02 19:19:58;;;;;;;13.65;5.32;;;30.50;66.40;;;;;;11886702;28;20060;-74
2021/06/02 19:25:45;;;;;;;8.52;6.00;;;29.60;69.30;;;;;;11888673;28;20093;-74
2021/06/02 19:31:33;;;;;;;11.98;6.00;;;29.10;71.50;;;;;;11880603;28;20436;-73
2021/06/02 19:37:19;;;;;;;9.68;6.45;;;28.60;73.60;;;;;;11888770;28;20555;-74
2021/06/02 19:43:06;;;;;;;8.95;6.47;;;28.30;75.10;;;;;;11887704;28;20053;-74
2021/06/02 19:48:53;;;;;;;10.68;7.13;;;28.00;76.50;;;;;;11889766;28;20145;-74
2021/06/02 19:54:40;;;;;;;15.18;8.40;;;27.80;78.00;;;;;;11886014;28;20062;-72
2021/06/02 20:00:27;;;;;;;15.85;10.30;;;27.40;77.50;;;;;;11886925;28;20064;-73
2021/06/02 20:06:15;;;;;;;14.98;8.60;;;27.00;78.50;;;;;;11884361;28;21318;-74
2021/06/02 20:12:04;;;;;;;13.73;8.73;;;26.80;79.30;;;;;;11884747;28;20062;-72
2021/06/02 20:17:51;;;;;;;13.82;8.52;;;26.70;80.10;;;;;;11884816;28;20169;-72
2021/06/02 20:23:40;;;;;;;12.73;8.73;;;26.70;80.40;;;;;;11884570;28;20062;-73
2021/06/02 20:29:37;;;;;;;13.65;9.35;;;26.60;80.60;;;;;;11883808;28;20054;-74
2021/06/02 20:35:24;;;;;;;13.48;8.48;;;26.60;80.90;;;;;;11887485;28;20141;-73
2021/06/02 20:41:12;;;;;;;11.48;8.73;;;26.60;81.40;;;;;;11883652;28;20072;-73
2021/06/02 20:47:02;;;;;;;15.57;9.00;;;26.40;82.00;;;;;;11886269;28;20141;-74
2021/06/02 20:52:49;;;;;;;11.10;8.57;;;26.40;83.00;;;;;;11884931;28;20046;-74
2021/06/02 20:58:36;;;;;;;16.02;8.70;;;26.40;82.50;;;;;;11884789;28;20046;-74
2021/06/02 21:04:23;;;;;;;12.82;8.90;;;26.30;82.30;;;;;;11887217;28;20099;-73
2021/06/02 21:10:10;;;;;;;11.40;8.13;;;26.20;82.40;;;;;;11885404;28;20050;-74
2021/06/02 21:15:58;;;;;;;14.90;8.57;;;26.10;83.00;;;;;;11884879;28;20461;-73
2021/06/02 21:21:45;;;;;;;15.55;8.75;;;26.00;83.50;;;;;;11883477;28;20548;-74
2021/06/02 21:27:32;;;;;;;16.42;7.75;;;25.90;83.50;;;;;;11883763;28;20050;-74
2021/06/02 21:33:20;;;;;;;12.32;8.73;;;25.80;84.00;;;;;;11887872;28;20051;-73
2021/06/02 21:39:08;;;;;;;16.58;9.27;;;25.80;84.60;;;;;;11881718;28;20115;-73
2021/06/02 21:44:56;;;;;;;16.27;9.00;;;25.80;84.60;;;;;;11885775;28;20160;-76
2021/06/02 21:50:44;;;;;;;11.98;8.38;;;25.70;84.60;;;;;;11884887;28;20140;-77
2021/06/02 21:56:32;;;;;;;15.10;8.88;;;25.70;84.90;;;;;;11885153;28;20038;-77
2021/06/02 22:02:18;;;;;;;12.10;8.55;;;25.60;84.90;;;;;;11882118;28;20092;-75
2021/06/02 22:08:07;;;;;;;12.77;9.27;;;25.60;84.90;;;;;;11883423;28;20054;-76
2021/06/02 22:13:53;;;;;;;10.23;8.20;;;25.60;84.90;;;;;;11885498;28;20081;-77
2021/06/02 22:19:39;;;;;;;13.30;8.27;;;25.60;85.20;;;;;;11882473;28;20545;-76
2021/06/02 22:25:28;;;;;;;17.52;8.50;;;25.50;85.00;;;;;;11892031;28;20054;-74
2021/06/02 22:31:14;;;;;;;11.88;8.57;;;25.50;85.30;;;;;;11890148;28;20050;-74
2021/06/02 22:37:01;;;;;;;12.23;8.63;;;25.50;85.50;;;;;;11889116;28;20054;-73
2021/06/02 22:42:49;;;;;;;16.00;9.55;;;25.40;85.70;;;;;;11891624;28;20058;-74
2021/06/02 22:48:36;;;;;;;16.00;8.43;;;25.30;86.20;;;;;;11891479;28;20069;-73
2021/06/02 22:54:23;;;;;;;13.13;8.90;;;25.30;86.30;;;;;;11896200;28;20061;-73
2021/06/02 23:00:16;;;;;;;12.27;8.52;;;25.30;86.20;;;;;;11890189;28;20050;-74
2021/06/02 23:06:02;;;;;;;15.05;8.80;;;25.20;86.20;;;;;;11890664;28;20107;-74
2021/06/02 23:11:49;;;;;;;15.13;9.32;;;25.10;86.40;;;;;;11886779;28;20046;-74
2021/06/02 23:17:44;;;;;;;13.07;8.43;;;25.00;87.50;;;;;;11890417;28;20046;-74
2021/06/02 23:23:31;;;;;;;16.48;8.80;;;25.00;87.50;;;;;;11888721;28;20045;-74
2021/06/02 23:29:17;;;;;;;27.45;9.80;;;24.90;87.50;;;;;;11890248;28;20497;-74
2021/06/02 23:35:07;;;;;;;13.02;8.52;;;25.00;87.60;;;;;;11888558;28;20054;-74
2021/06/02 23:40:54;;;;;;;13.73;8.43;;;25.00;87.20;;;;;;11890741;28;20054;-74
2021/06/02 23:46:40;;;;;;;13.27;9.10;;;25.00;87.10;;;;;;11888552;28;20064;-74
2021/06/02 23:52:28;;;;;;;14.70;9.20;;;25.00;87.30;;;;;;11889778;28;20050;-74
